Time;durP1;ratioP1;P1;durP2;ratioP2;P2;SDS_P1;SDS_P2;PMS_P1;PMS_P2;Temp;Humidity;BMP_temperature;BMP_pressure;BME280_temperature;BME280_humidity;BME280_pressure;Samples;Min_cycle;Max_cycle;Signal;HPM_P1;HPM_P2
2022/04/08 00:02:14;;;;;;;6.40;4.38;;;;;;;4.41;100.00;99884.94;5240748;28;20028;-83
2022/04/08 00:04:45;;;;;;;3.72;3.58;;;;;;;4.37;100.00;99884.59;5246496;28;20081;-83
2022/04/08 00:07:16;;;;;;;4.50;4.30;;;;;;;4.39;100.00;99890.53;5230278;28;20048;-83
2022/04/08 00:09:46;;;;;;;5.75;5.05;;;;;;;4.39;100.00;99900.41;5228198;28;20031;-81
2022/04/08 00:12:17;;;;;;;5.00;4.68;;;;;;;4.66;100.00;99930.03;5226413;28;20028;-81
2022/04/08 00:14:47;;;;;;;6.82;4.10;;;;;;;4.26;100.00;99863.28;5243450;28;20025;-83
2022/04/08 00:17:18;;;;;;;3.97;3.65;;;;;;;4.54;100.00;99905.22;5220382;28;20089;-83
2022/04/08 00:19:49;;;;;;;5.43;4.28;;;;;;;4.75;100.00;99929.41;5220139;28;20029;-82
2022/04/08 00:22:21;;;;;;;5.88;4.40;;;;;;;4.86;100.00;99934.97;5220368;28;20051;-81
2022/04/08 00:24:51;;;;;;;4.72;4.53;;;;;;;4.92;100.00;99933.97;5237439;28;20029;-82
2022/04/08 00:27:21;;;;;;;6.35;5.07;;;;;;;4.95;100.00;99934.31;5219469;28;20036;-83
2022/04/08 00:29:52;;;;;;;6.40;5.80;;;;;;;5.04;100.00;99940.88;5220050;28;20360;-83
2022/04/08 00:32:24;;;;;;;8.85;5.35;;;;;;;5.00;100.00;99947.78;5238106;28;20104;-83
2022/04/08 00:34:55;;;;;;;6.30;5.30;;;;;;;5.04;100.00;99943.56;5237310;28;20032;-82
2022/04/08 00:37:25;;;;;;;7.32;6.93;;;;;;;5.07;100.00;99956.47;5220739;28;20021;-82
2022/04/08 00:39:56;;;;;;;8.27;7.60;;;;;;;4.01;100.00;99813.69;5221677;28;20021;-82
2022/04/08 00:42:26;;;;;;;8.35;7.85;;;;;;;4.86;100.00;99959.03;5240533;28;20032;-81
2022/04/08 00:44:57;;;;;;;10.10;9.48;;;;;;;4.52;100.00;99918.84;5240329;28;20076;-83
2022/04/08 00:47:28;;;;;;;10.98;8.77;;;;;;;4.61;100.00;99944.16;5241479;28;20028;-84
2022/04/08 00:49:58;;;;;;;9.25;8.75;;;;;;;4.35;100.00;99912.63;5239490;28;20070;-83
2022/04/08 00:52:31;;;;;;;10.75;10.00;;;;;;;4.35;100.00;99924.13;5223314;28;20028;-82
2022/04/08 00:55:04;;;;;;;11.18;10.27;;;;;;;4.38;100.00;99941.53;5241013;28;20032;-83
2022/04/08 00:57:35;;;;;;;13.02;11.85;;;;;;;4.29;100.00;99929.63;5224031;28;20013;-84
2022/04/08 01:00:08;;;;;;;18.08;14.05;;;;;;;4.36;100.00;99947.13;5241143;28;20105;-81
2022/04/08 01:02:38;;;;;;;11.93;10.88;;;;;;;4.57;100.00;99975.09;5222555;28;20055;-84
2022/04/08 01:05:09;;;;;;;11.32;10.38;;;;;;;4.31;100.00;99938.22;5241159;28;20021;-83
2022/04/08 01:07:40;;;;;;;12.68;11.05;;;;;;;4.52;100.00;99950.09;5223835;28;20035;-82
2022/04/08 01:10:10;;;;;;;10.20;9.43;;;;;;;4.80;100.00;99989.41;5240757;28;20029;-82
2022/04/08 01:12:41;;;;;;;12.63;11.60;;;;;;;4.70;100.00;99971.31;5223016;28;20021;-83
2022/04/08 01:15:12;;;;;;;13.02;11.65;;;;;;;4.49;100.00;99937.22;5221868;28;20021;-83
2022/04/08 01:17:42;;;;;;;16.45;11.57;;;;;;;4.59;100.00;99959.63;5222404;28;20094;-81
2022/04/08 01:20:13;;;;;;;14.20;11.70;;;;;;;4.54;100.00;99970.22;5240557;28;20025;-82
2022/04/08 01:22:44;;;;;;;12.98;10.95;;;;;;;4.41;100.00;99957.91;5241103;28;20024;-84
2022/04/08 01:25:14;;;;;;;11.65;10.73;;;;;;;4.29;100.00;99940.31;5221592;28;20084;-81
2022/04/08 01:27:45;;;;;;;15.98;12.30;;;;;;;4.57;100.00;99972.41;5241187;28;20048;-82
2022/04/08 01:30:16;;;;;;;13.95;12.75;;;;;;;4.46;100.00;99946.53;5240885;28;20029;-81
2022/04/08 01:32:46;;;;;;;12.68;11.77;;;;;;;4.82;100.00;100006.03;5222709;28;20033;-84
2022/04/08 01:35:17;;;;;;;13.77;12.65;;;;;;;4.66;100.00;99968.28;5240311;28;20033;-81
2022/04/08 01:37:48;;;;;;;12.27;11.25;;;;;;;4.77;100.00;99977.31;5226382;28;20017;-82
2022/04/08 01:40:18;;;;;;;11.40;10.25;;;;;;;4.59;100.00;99962.28;5244978;28;20033;-81
2022/04/08 01:42:49;;;;;;;10.68;9.70;;;;;;;4.92;100.00;99984.78;5244475;28;20017;-82
2022/04/08 01:45:19;;;;;;;9.02;8.52;;;;;;;4.96;100.00;99996.66;5228835;28;20052;-83
2022/04/08 01:47:50;;;;;;;10.23;9.27;;;;;;;4.75;100.00;99964.19;5245185;28;20048;-81
2022/04/08 01:50:22;;;;;;;6.95;6.10;;;;;;;4.62;100.00;99934.28;5247641;28;20037;-81
2022/04/08 01:52:52;;;;;;;8.70;8.05;;;;;;;4.87;100.00;99982.06;5232874;28;20036;-80
2022/04/08 01:55:23;;;;;;;6.28;5.97;;;;;;;4.75;100.00;99979.41;5232292;28;20025;-81
2022/04/08 01:57:53;;;;;;;9.38;5.82;;;;;;;4.58;100.00;99955.31;5232313;28;20120;-81
2022/04/08 02:00:24;;;;;;;6.05;5.75;;;;;;;4.65;100.00;99985.38;5226768;28;20079;-83
2022/04/08 02:02:54;;;;;;;11.05;5.90;;;;;;;4.54;100.00;99991.59;5226330;28;20070;-84
2022/04/08 02:05:25;;;;;;;8.75;5.97;;;;;;;4.57;100.00;100012.53;5227655;28;20028;-82
2022/04/08 02:07:56;;;;;;;7.70;6.47;;;;;;;4.40;100.00;99983.03;5232035;28;20028;-81
2022/04/08 02:10:27;;;;;;;11.15;7.55;;;;;;;4.56;100.00;100015.44;5247874;28;20025;-83
2022/04/08 02:12:57;;;;;;;7.78;7.20;;;;;;;4.53;100.00;100013.22;5225785;28;20056;-81
2022/04/08 02:15:33;;;;;;;9.27;5.47;;;;;;;4.38;100.00;100006.50;5225011;28;20043;-82
2022/04/08 02:18:04;;;;;;;7.72;7.28;;;;;;;4.53;100.00;100015.91;5243119;28;20025;-81
2022/04/08 02:20:35;;;;;;;7.15;6.43;;;;;;;4.33;100.00;99994.91;5243235;28;20071;-83
2022/04/08 02:23:05;;;;;;;11.18;6.18;;;;;;;4.36;100.00;100021.97;5243607;28;20021;-83
2022/04/08 02:25:36;;;;;;;6.70;6.03;;;;;;;4.11;100.00;99999.25;5243269;28;20057;-81
2022/04/08 02:28:06;;;;;;;10.18;8.02;;;;;;;3.94;100.00;100005.31;5225367;28;20033;-82
2022/04/08 02:30:37;;;;;;;8.20;6.47;;;;;;;3.66;100.00;99959.81;5242070;28;20041;-83
2022/04/08 02:33:08;;;;;;;9.10;7.05;;;;;;;3.45;100.00;99950.53;5242125;28;20021;-83
2022/04/08 02:35:38;;;;;;;10.05;7.53;;;;;;;3.69;100.00;99994.06;5243278;28;20088;-81
2022/04/08 02:38:09;;;;;;;7.68;6.68;;;;;;;3.63;100.00;100011.00;5244180;28;20025;-82
2022/04/08 02:40:40;;;;;;;6.32;5.90;;;;;;;3.58;100.00;100018.88;5224827;28;20017;-83
2022/04/08 02:43:10;;;;;;;6.03;5.60;;;;;;;3.11;100.00;99956.63;5224866;28;20029;-84
2022/04/08 02:45:41;;;;;;;7.00;6.50;;;;;;;3.24;100.00;99991.91;5242297;28;20024;-84
2022/04/08 02:48:14;;;;;;;7.03;6.43;;;;;;;2.94;100.00;99938.59;5242203;28;20041;-81
2022/04/08 02:50:45;;;;;;;7.53;6.93;;;;;;;3.37;100.00;100017.59;5242493;28;20025;-82
2022/04/08 02:53:15;;;;;;;5.80;5.32;;;;;;;3.18;100.00;99989.34;5242001;28;20036;-80
2022/04/08 02:55:46;;;;;;;7.22;6.60;;;;;;;2.83;100.00;99951.94;5242144;28;20075;-82
2022/04/08 02:58:17;;;;;;;7.88;7.00;;;;;;;3.00;100.00;99982.22;5242179;28;20500;-81
2022/04/08 03:00:47;;;;;;;6.30;5.97;;;;;;;3.06;100.00;99997.31;5242804;28;20357;-83
2022/04/08 03:03:18;;;;;;;7.40;6.45;;;;;;;3.02;100.00;100004.16;5243076;28;20174;-83
2022/04/08 03:05:48;;;;;;;10.95;5.18;;;;;;;3.17;100.00;100028.56;5241812;28;20033;-81
2022/04/08 03:08:19;;;;;;;15.45;7.22;;;;;;;3.11;100.00;100021.47;5224580;28;20021;-81
2022/04/08 03:10:50;;;;;;;7.30;6.72;;;;;;;2.81;100.00;99978.00;5224667;28;20032;-83
2022/04/08 03:13:20;;;;;;;6.45;5.18;;;;;;;2.36;100.00;99915.25;5241933;28;20029;-84
2022/04/08 03:15:51;;;;;;;6.40;5.88;;;;;;;2.75;100.00;100002.91;5242310;28;20052;-81
2022/04/08 03:18:22;;;;;;;9.13;6.22;;;;;;;2.82;100.00;100022.28;5241756;28;20028;-83
2022/04/08 03:20:53;;;;;;;15.18;6.65;;;;;;;2.70;100.00;100008.91;5225321;28;20029;-83
2022/04/08 03:23:23;;;;;;;8.38;5.20;;;;;;;2.77;100.00;100014.97;5243018;28;20029;-80
2022/04/08 03:25:54;;;;;;;11.40;6.75;;;;;;;2.85;100.00;100049.31;5242027;28;20028;-82
2022/04/08 03:28:25;;;;;;;8.30;6.68;;;;;;;2.75;100.00;100026.88;5224214;28;20096;-84
2022/04/08 03:30:55;;;;;;;7.28;6.72;;;;;;;1.75;100.00;99885.28;5241761;28;20032;-83
2022/04/08 03:33:26;;;;;;;7.40;6.90;;;;;;;2.80;100.00;100065.16;5224830;28;20040;-81
2022/04/08 03:35:56;;;;;;;7.38;6.43;;;;;;;2.47;100.00;100011.47;5242740;28;20101;-83
2022/04/08 03:38:27;;;;;;;6.07;5.22;;;;;;;2.37;100.00;99999.47;5225055;28;20455;-83
2022/04/08 03:40:57;;;;;;;6.70;6.07;;;;;;;2.62;100.00;100059.84;5242485;28;20017;-83
2022/04/08 03:43:28;;;;;;;7.45;6.75;;;;;;;2.70;100.00;100072.88;5242485;28;20032;-83
2022/04/08 03:45:58;;;;;;;6.70;6.22;;;;;;;2.02;100.00;99953.19;5242398;28;20036;-81
2022/04/08 03:48:29;;;;;;;6.93;6.53;;;;;;;2.70;100.00;100092.34;5242692;28;20025;-81
2022/04/08 03:50:59;;;;;;;5.80;5.40;;;;;;;2.50;100.00;100059.78;5241636;28;20396;-83
2022/04/08 03:53:30;;;;;;;7.68;7.28;;;;;;;2.41;100.00;100060.31;5242242;28;20132;-84
2022/04/08 03:56:02;;;;;;;7.25;6.70;;;;;;;1.63;100.00;99941.09;5242966;28;20455;-83
2022/04/08 03:58:32;;;;;;;6.25;5.93;;;;;;;2.08;100.00;100037.50;5224658;28;20089;-83
2022/04/08 04:01:03;;;;;;;6.20;5.90;;;;;;;2.07;100.00;100017.22;5242326;28;20025;-82
2022/04/08 04:03:33;;;;;;;11.02;6.70;;;;;;;1.72;100.00;99950.44;5224315;28;20051;-83
2022/04/08 04:06:04;;;;;;;8.25;7.65;;;;;;;2.26;100.00;100032.19;5242407;28;20017;-80
2022/04/08 04:08:34;;;;;;;6.72;6.38;;;;;;;2.27;100.00;100033.81;5242335;28;20047;-83
2022/04/08 04:11:04;;;;;;;11.55;7.85;;;;;;;2.36;100.00;100048.47;5241449;28;20021;-82
2022/04/08 04:13:35;;;;;;;7.78;7.20;;;;;;;2.10;100.00;100015.97;5224291;28;20041;-83
2022/04/08 04:16:05;;;;;;;8.90;7.80;;;;;;;1.88;100.00;99975.66;5224361;28;20021;-83
2022/04/08 04:18:36;;;;;;;6.75;6.28;;;;;;;2.27;100.00;100043.66;5242493;28;20535;-84
2022/04/08 04:21:08;;;;;;;9.52;7.80;;;;;;;2.02;100.00;100012.56;5241502;28;20009;-81
2022/04/08 04:23:39;;;;;;;8.32;7.10;;;;;;;2.19;100.00;100046.63;5242112;28;20103;-82
2022/04/08 04:26:10;;;;;;;8.73;8.10;;;;;;;2.02;100.00;100020.53;5223757;28;20052;-82
2022/04/08 04:28:40;;;;;;;8.85;8.25;;;;;;;2.07;100.00;100029.72;5242185;28;20052;-82
2022/04/08 04:31:11;;;;;;;7.55;7.10;;;;;;;1.82;100.00;99992.50;5224853;28;20021;-83
2022/04/08 04:33:41;;;;;;;8.70;8.10;;;;;;;1.60;100.00;99952.19;5223790;28;20369;-82
2022/04/08 04:36:12;;;;;;;7.97;7.38;;;;;;;2.13;100.00;100029.66;5216753;23;20493;-82
2022/04/08 04:38:43;;;;;;;7.53;7.03;;;;;;;1.77;100.00;99989.69;5188868;28;20104;-83
2022/04/08 04:41:13;;;;;;;13.80;8.13;;;;;;;2.12;100.00;100051.19;5189057;28;20508;-83
2022/04/08 04:43:43;;;;;;;8.65;8.25;;;;;;;1.81;100.00;99997.00;5188674;28;20109;-80
2022/04/08 04:46:14;;;;;;;7.63;7.03;;;;;;;2.03;100.00;100045.31;5170961;28;20026;-81
2022/04/08 04:48:44;;;;;;;7.68;7.28;;;;;;;2.02;100.00;100036.53;5188982;28;20025;-82
2022/04/08 04:51:16;;;;;;;8.60;8.07;;;;;;;2.07;100.00;100046.53;5171304;28;20076;-82
2022/04/08 04:53:46;;;;;;;9.25;8.35;;;;;;;2.04;100.00;100039.78;5171619;28;20084;-80
2022/04/08 04:56:17;;;;;;;9.52;8.32;;;;;;;2.08;100.00;100053.47;5188453;28;20034;-83
2022/04/08 04:58:47;;;;;;;9.00;8.35;;;;;;;1.71;100.00;99974.63;5171464;28;20058;-83
2022/04/08 05:01:17;;;;;;;9.60;8.60;;;;;;;2.02;100.00;100019.75;5188327;28;20026;-83
2022/04/08 05:03:48;;;;;;;11.55;10.38;;;;;;;2.11;100.00;100038.91;5188227;28;20207;-84
2022/04/08 05:06:18;;;;;;;9.98;9.25;;;;;;;2.24;100.00;100052.09;5183934;28;20346;-83
2022/04/08 05:08:48;;;;;;;10.90;10.00;;;;;;;2.09;100.00;100017.00;5209065;28;20057;-84
2022/04/08 05:11:19;;;;;;;9.82;8.93;;;;;;;2.30;100.00;100043.22;5211314;28;20080;-84
2022/04/08 05:13:49;;;;;;;10.35;9.63;;;;;;;2.26;100.00;100032.19;5213741;28;20025;-80
2022/04/08 05:16:19;;;;;;;11.20;9.68;;;;;;;2.21;100.00;100025.91;5213778;28;20100;-81
2022/04/08 05:18:50;;;;;;;9.93;9.23;;;;;;;2.32;100.00;100044.59;5212933;28;20032;-84
2022/04/08 05:21:21;;;;;;;10.82;9.93;;;;;;;2.34;100.00;100044.38;5213198;28;20039;-82
2022/04/08 05:23:51;;;;;;;11.75;10.57;;;;;;;2.38;100.00;100042.91;5212527;28;20047;-83
2022/04/08 05:26:22;;;;;;;9.63;9.02;;;;;;;2.30;100.00;100014.75;5196684;28;20029;-82
2022/04/08 05:28:52;;;;;;;10.80;9.90;;;;;;;2.27;100.00;100006.38;5213813;28;20021;-82
2022/04/08 05:31:22;;;;;;;10.95;10.23;;;;;;;2.41;100.00;100012.34;5213253;28;20025;-83
2022/04/08 05:33:53;;;;;;;10.25;8.85;;;;;;;2.36;100.00;100010.34;5215588;28;20025;-83
2022/04/08 05:36:23;;;;;;;10.75;10.00;;;;;;;2.50;100.00;100027.81;5215927;28;20033;-82
2022/04/08 05:38:54;;;;;;;8.27;7.78;;;;;;;2.53;100.00;100023.91;5214308;28;20393;-83
2022/04/08 05:41:24;;;;;;;14.10;13.10;;;;;;;2.50;100.00;100006.50;5213938;28;20126;-82
2022/04/08 05:43:54;;;;;;;10.90;9.95;;;;;;;2.65;100.00;100020.22;5214039;28;20099;-83
2022/04/08 05:46:25;;;;;;;9.95;9.38;;;;;;;2.36;100.00;99959.72;5214204;28;20033;-83
2022/04/08 05:48:55;;;;;;;10.50;9.60;;;;;;;2.60;100.00;99993.44;5214174;28;20035;-82
2022/04/08 05:51:25;;;;;;;11.90;10.23;;;;;;;2.54;100.00;99965.03;5213703;28;20396;-81
2022/04/08 05:53:56;;;;;;;12.43;11.45;;;;;;;2.87;100.00;100009.09;5213787;28;20040;-82
2022/04/08 05:56:26;;;;;;;11.25;10.45;;;;;;;3.00;100.00;100015.03;5212965;28;20470;-83
2022/04/08 05:58:57;;;;;;;10.90;10.00;;;;;;;2.95;100.00;99976.75;5192734;28;20436;-82
2022/04/08 06:01:28;;;;;;;10.88;10.15;;;;;;;3.28;100.00;100008.28;5213342;28;20049;-81
2022/04/08 06:03:58;;;;;;;17.05;10.00;;;;;;;3.39;100.00;100016.31;5213328;28;20021;-83
2022/04/08 06:06:28;;;;;;;10.05;9.35;;;;;;;3.26;100.00;99978.34;5213172;28;20029;-85
2022/04/08 06:08:59;;;;;;;9.32;8.65;;;;;;;3.49;100.00;99994.38;5211496;28;20018;-83
2022/04/08 06:11:29;;;;;;;10.52;9.73;;;;;;;3.63;100.00;100011.81;5211639;28;20091;-84
2022/04/08 06:14:00;;;;;;;11.38;10.40;;;;;;;3.57;100.00;99983.38;5213141;28;20036;-84
2022/04/08 06:16:30;;;;;;;14.10;9.80;;;;;;;3.86;100.00;100000.31;5213329;28;20060;-85
2022/04/08 06:19:00;;;;;;;9.95;9.15;;;;;;;4.08;100.00;100011.22;5212019;28;20021;-86
2022/04/08 06:21:31;;;;;;;10.25;9.32;;;;;;;4.16;100.00;99999.34;5195255;28;20049;-84
2022/04/08 06:24:01;;;;;;;9.30;8.50;;;;;;;4.20;100.00;99976.47;5208962;28;20771;-82
2022/04/08 06:26:34;;;;;;;13.38;8.63;;;;;;;4.49;100.00;99999.50;5212933;28;20029;-82
2022/04/08 06:29:05;;;;;;;8.50;7.78;;;;;;;4.37;100.00;99955.94;5211103;28;20018;-86
2022/04/08 06:31:35;;;;;;;8.57;7.88;;;;;;;4.66;100.00;99995.03;5212804;28;20485;-86
2022/04/08 06:34:06;;;;;;;13.88;9.57;;;;;;;4.44;100.00;99937.13;5213389;28;20104;-83
2022/04/08 06:36:36;;;;;;;11.07;8.55;;;;;;;4.79;100.00;99982.44;5217816;28;20032;-81
2022/04/08 06:39:07;;;;;;;8.23;7.78;;;;;;;4.92;100.00;99987.47;5235083;28;20489;-86
2022/04/08 06:41:37;;;;;;;13.85;8.18;;;;;;;4.85;100.00;99957.41;5233424;28;20128;-84
2022/04/08 06:44:07;;;;;;;8.10;7.47;;;;;;;5.03;100.00;99991.97;5236985;23;20083;-90
2022/04/08 06:46:38;;;;;;;11.45;8.95;;;;;;;5.11;100.00;99980.06;5199068;28;20088;-90
2022/04/08 06:49:08;;;;;;;7.53;6.88;;;;;;;4.96;100.00;99967.22;5208649;28;20030;-90
2022/04/08 06:51:38;;;;;;;8.95;8.02;;;;;;;5.09;100.00;99969.59;5194389;28;20017;-91
2022/04/08 06:54:09;;;;;;;8.35;7.55;;;;;;;5.19;100.00;99972.47;5212959;28;20409;-92
2022/04/08 06:56:39;;;;;;;8.25;7.32;;;;;;;4.54;100.00;99871.28;5210442;28;20096;-92
2022/04/08 06:59:09;;;;;;;11.00;7.97;;;;;;;5.09;100.00;99957.03;5191517;28;20037;-90
2022/04/08 07:01:40;;;;;;;8.65;7.03;;;;;;;5.13;100.00;99957.38;5191170;28;20021;-92
2022/04/08 07:04:10;;;;;;;10.98;6.78;;;;;;;5.29;100.00;99986.00;5190366;28;20018;-91
2022/04/08 07:06:40;;;;;;;7.20;6.65;;;;;;;5.10;100.00;99949.81;5192083;28;20079;-93
2022/04/08 07:09:11;;;;;;;6.95;6.55;;;;;;;5.45;100.00;99980.91;5208083;28;20029;-93
2022/04/08 07:11:41;;;;;;;8.70;7.85;;;;;;;5.53;100.00;99991.19;5191251;28;20060;-90
2022/04/08 07:14:11;;;;;;;9.27;7.53;;;;;;;5.43;100.00;99957.84;5207723;28;20484;-92
2022/04/08 07:16:43;;;;;;;8.13;6.03;;;;;;;5.44;100.00;99980.09;5209203;28;20022;-93
2022/04/08 07:19:13;;;;;;;8.13;7.28;;;;;;;4.97;100.00;99875.19;5191769;28;20075;-92
2022/04/08 07:21:43;;;;;;;10.27;7.75;;;;;;;4.57;100.00;99808.50;5190444;28;20025;-91
2022/04/08 07:24:14;;;;;;;9.13;6.53;;;;;;;5.68;100.00;99970.81;5189583;28;20060;-93
2022/04/08 07:26:44;;;;;;;13.32;6.32;;;;;;;5.59;100.00;99947.34;5208035;28;20053;-90
2022/04/08 07:29:14;;;;;;;6.80;6.40;;;;;;;5.86;100.00;99972.41;5190431;28;20033;-88
2022/04/08 07:31:45;;;;;;;6.80;6.35;;;;;;;5.73;100.00;99936.06;5207937;28;20036;-91
2022/04/08 07:34:15;;;;;;;15.15;6.45;;;;;;;5.80;100.00;99938.56;5207166;28;20504;-91
2022/04/08 07:36:45;;;;;;;10.80;6.35;;;;;;;5.91;100.00;99948.38;5190844;28;20091;-91
2022/04/08 07:39:16;;;;;;;6.55;6.00;;;;;;;5.31;100.00;99842.00;5207422;28;20550;-89
2022/04/08 07:41:47;;;;;;;8.00;6.90;;;;;;;5.71;100.00;99889.16;5190069;28;20129;-89
2022/04/08 07:44:17;;;;;;;5.07;4.72;;;;;;;6.23;100.00;99955.78;5189275;28;20033;-90
2022/04/08 07:46:47;;;;;;;6.13;5.40;;;;;;;6.43;100.00;99958.69;5207943;28;20033;-89
2022/04/08 07:49:18;;;;;;;5.22;4.90;;;;;;;6.39;100.00;99936.09;5192904;28;20033;-90
2022/04/08 07:51:50;;;;;;;6.97;5.68;;;;;;;5.55;100.00;99815.81;5216722;28;20116;-91
2022/04/08 07:54:21;;;;;;;6.85;5.00;;;;;;;6.61;100.00;99950.31;5213022;28;20037;-91
2022/04/08 07:56:52;;;;;;;6.72;5.95;;;;;;;5.41;100.00;99761.84;5214941;28;20021;-91
2022/04/08 07:59:22;;;;;;;6.55;5.65;;;;;;;6.78;100.00;99959.06;5193250;28;20014;-90
2022/04/08 08:01:52;;;;;;;9.35;5.57;;;;;;;6.86;100.00;99955.13;5212105;28;20030;-90
2022/04/08 08:04:23;;;;;;;7.93;5.63;;;;;;;6.36;100.00;99864.19;5207834;28;20021;-90
2022/04/08 08:06:53;;;;;;;4.60;4.30;;;;;;;6.65;100.00;99903.13;5209127;28;20048;-92
2022/04/08 08:09:24;;;;;;;9.82;5.30;;;;;;;7.05;100.00;99953.69;5211188;28;20389;-91
2022/04/08 08:11:54;;;;;;;5.13;4.30;;;;;;;6.56;100.00;99875.16;5194843;28;20026;-92
2022/04/08 08:14:24;;;;;;;5.65;4.85;;;;;;;6.98;100.00;99920.88;5208632;28;20529;-90
2022/04/08 08:16:55;;;;;;;4.72;4.43;;;;;;;7.05;100.00;99908.06;5190273;28;20040;-91
2022/04/08 08:19:26;;;;;;;4.00;3.65;;;;;;;6.96;100.00;99871.19;5207292;28;20017;-90
2022/04/08 08:21:56;;;;;;;7.63;5.70;;;;;;;7.35;100.00;99902.13;5191973;28;20640;-92
2022/04/08 08:24:27;;;;;;;4.68;4.47;;;;;;;7.53;100.00;99911.63;5191675;28;20116;-91
2022/04/08 08:26:57;;;;;;;5.65;4.05;;;;;;;7.49;100.00;99897.13;5192017;28;20041;-93
2022/04/08 08:29:27;;;;;;;4.95;4.60;;;;;;;7.48;100.00;99870.50;5192421;28;20032;-94
2022/04/08 08:31:58;;;;;;;27.45;6.18;;;;;;;7.74;100.00;99896.44;5210061;28;20401;-92
2022/04/08 08:34:28;;;;;;;4.35;4.05;;;;;;;7.40;100.00;99808.16;5189597;28;20059;-92
2022/04/08 08:36:59;;;;;;;5.50;3.67;;;;;;;7.94;100.00;99872.34;5207640;28;20036;-91
2022/04/08 08:39:30;;;;;;;4.07;3.78;;;;;;;7.57;100.00;99801.75;5207163;28;20021;-91
2022/04/08 08:42:00;;;;;;;5.13;4.65;;;;;;;7.54;100.00;99818.41;5196243;28;20112;-92
2022/04/08 08:44:31;;;;;;;4.93;4.38;;;;;;;8.04;100.00;99871.59;5192568;28;20100;-93
2022/04/08 08:47:08;;;;;;;4.43;4.10;;;;;;;7.30;100.00;99740.94;5214691;28;20021;-93
2022/04/08 08:49:44;;;;;;;5.15;4.53;;;;;;;6.73;100.00;99637.06;5210378;28;20523;-91
2022/04/08 08:52:18;;;;;;;6.53;4.38;;;;;;;7.89;100.00;99799.75;5190019;28;20025;-90
2022/04/08 08:54:49;;;;;;;3.30;3.10;;;;;;;7.99;100.00;99823.16;5206084;28;20084;-92
2022/04/08 08:57:22;;;;;;;5.00;3.45;;;;;;;8.30;100.00;99864.41;5190515;28;20025;-91
2022/04/08 09:00:02;;;;;;;11.57;4.20;;;;;;;7.45;100.00;99740.22;5207802;28;20021;-91
2022/04/08 09:02:34;;;;;;;;;;;;;;;8.29;100.00;99862.78;5188390;28;20137;-92
2022/04/08 09:05:23;;;;;;;5.57;4.93;;;;;;;8.00;100.00;99819.41;5204789;28;19916;-91
2022/04/08 09:07:59;;;;;;;4.25;3.95;;;;;;;8.34;100.00;99857.47;5191450;28;20026;-92
2022/04/08 09:10:44;;;;;;;6.95;4.45;;;;;;;7.99;100.00;99821.28;5207790;28;20100;-88
2022/04/08 09:13:23;;;;;;;5.95;4.32;;;;;;;8.28;100.00;99871.94;5205345;28;20033;-89
2022/04/08 09:15:59;;;;;;;6.38;3.50;;;;;;;8.32;100.00;99870.34;5206160;28;20453;-92
2022/04/08 09:18:34;;;;;;;4.25;3.80;;;;;;;8.10;100.00;99830.97;5205421;28;20449;-90
2022/04/08 09:21:04;;;;;;;3.47;3.28;;;;;;;8.33;100.00;99867.41;5191348;28;20025;-88
2022/04/08 09:23:35;;;;;;;3.85;3.55;;;;;;;8.07;100.00;99836.91;5222807;28;20025;-90
2022/04/08 09:26:07;;;;;;;5.40;4.30;;;;;;;8.11;100.00;99839.88;5192836;28;20072;-90
2022/04/08 09:28:40;;;;;;;4.35;4.00;;;;;;;8.49;100.00;99902.41;5211068;28;20500;-90
2022/04/08 09:31:19;;;;;;;3.95;3.65;;;;;;;8.30;100.00;99859.84;5208718;28;20489;-90
2022/04/08 09:33:52;;;;;;;5.27;3.70;;;;;;;8.35;100.00;99867.94;5209417;28;20392;-91
2022/04/08 09:36:31;;;;;;;4.28;3.97;;;;;;;8.17;100.00;99836.13;5211280;28;20040;-90
2022/04/08 09:39:07;;;;;;;6.43;4.38;;;;;;;8.58;100.00;99890.88;5190935;28;20025;-89
2022/04/08 09:41:46;;;;;;;6.90;3.97;;;;;;;8.16;100.00;99845.25;5208791;28;20013;-91
2022/04/08 09:44:25;;;;;;;6.78;4.30;;;;;;;8.25;100.00;99854.44;5208227;28;20033;-92
2022/04/08 09:46:56;;;;;;;3.83;3.45;;;;;;;7.89;100.00;99798.94;5192176;28;20036;-90
2022/04/08 09:49:26;;;;;;;6.88;4.40;;;;;;;7.58;100.00;99733.53;5191588;28;20025;-91
2022/04/08 09:51:58;;;;;;;4.38;4.15;;;;;;;8.68;100.00;99880.09;5191813;28;20036;-93
2022/04/08 09:54:32;;;;;;;3.67;2.90;;;;;;;8.91;100.00;99894.13;5190145;28;20492;-94
2022/04/08 09:57:14;;;;;;;8.60;3.25;;;;;;;8.53;100.00;99831.66;5210833;28;20036;-92
2022/04/08 09:59:58;;;;;;;4.00;3.78;;;;;;;8.22;100.00;99760.03;5213066;28;20076;-93
2022/04/08 10:02:31;;;;;;;5.38;4.72;;;;;;;8.87;100.00;99893.06;5216342;28;20092;-92
2022/04/08 10:05:02;;;;;;;5.80;4.43;;;;;;;8.17;100.00;99778.84;5198323;28;20107;-91
2022/04/08 10:07:33;;;;;;;9.20;5.32;;;;;;;8.43;100.00;99800.16;5214380;28;20033;-90
2022/04/08 10:10:18;;;;;;;13.75;4.95;;;;;;;8.86;100.00;99865.31;5196304;28;20028;-93
2022/04/08 10:13:03;;;;;;;6.53;4.47;;;;;;;8.74;100.00;99860.19;5198189;28;20045;-92
2022/04/08 10:15:40;;;;;;;4.53;3.90;;;;;;;8.64;100.00;99857.50;5210672;28;20025;-91
2022/04/08 10:18:10;;;;;;;4.28;3.90;;;;;;;7.98;100.00;99740.91;5194498;28;20022;-90
2022/04/08 10:20:41;;;;;;;4.60;4.28;;;;;;;7.68;100.00;99672.59;5210888;28;20021;-90
2022/04/08 10:23:14;;;;;;;3.15;2.85;;;;;;;8.79;100.00;99848.63;5194526;28;20044;-90
2022/04/08 10:25:50;;;;;;;4.35;3.90;;;;;;;8.44;100.00;99801.78;5208932;28;20120;-90
2022/04/08 10:28:20;;;;;;;5.82;3.95;;;;;;;8.34;100.00;99798.28;5193815;28;20116;-93
2022/04/08 10:30:50;;;;;;;3.22;3.05;;;;;;;8.68;100.00;99810.13;5197284;28;20071;-91
2022/04/08 10:33:28;;;;;;;5.25;4.22;;;;;;;8.73;100.00;99812.81;5211747;28;20033;-90
2022/04/08 10:36:03;;;;;;;3.20;3.00;;;;;;;9.07;100.00;99837.31;5247298;22;20129;-64
2022/04/08 10:38:38;;;;;;;6.45;3.90;;;;;;;8.99;100.00;99813.59;5182496;28;20017;-63
2022/04/08 10:41:11;;;;;;;4.03;3.72;;;;;;;9.17;100.00;99835.69;5206999;28;20026;-65
2022/04/08 10:43:52;;;;;;;5.18;4.20;;;;;;;9.12;100.00;99829.22;5190696;28;20510;-64
2022/04/08 10:46:30;;;;;;;3.28;2.50;;;;;;;9.32;100.00;99819.50;5190643;28;20123;-64
2022/04/08 10:49:00;;;;;;;4.00;2.95;;;;;;;9.48;100.00;99818.38;5207223;28;20053;-64
2022/04/08 10:51:31;;;;;;;10.30;4.10;;;;;;;9.50;100.00;99827.00;5190045;28;20088;-64
2022/04/08 10:54:04;;;;;;;8.52;3.17;;;;;;;9.50;100.00;99818.13;5189784;28;20479;-65
2022/04/08 10:56:34;;;;;;;5.28;3.03;;;;;;;9.42;100.00;99806.81;5189967;28;20025;-64
2022/04/08 10:59:05;;;;;;;3.60;3.50;;;;;;;9.42;100.00;99814.88;5189954;28;20021;-65
2022/04/08 11:01:47;;;;;;;8.40;3.65;;;;;;;9.44;100.00;99815.44;5189999;28;20436;-65
2022/04/08 11:04:19;;;;;;;9.45;3.95;;;;;;;9.54;100.00;99816.44;5189795;28;20036;-64
2022/04/08 11:06:51;;;;;;;3.50;3.30;;;;;;;9.45;100.00;99803.56;5189849;28;20033;-64
2022/04/08 11:09:22;;;;;;;12.05;3.65;;;;;;;9.37;100.00;99796.03;5189599;28;20475;-65
2022/04/08 11:11:53;;;;;;;3.22;3.03;;;;;;;9.34;100.00;99785.81;5189273;28;20067;-64
2022/04/08 11:14:26;;;;;;;4.07;3.58;;;;;;;9.48;100.00;99788.75;5189295;28;20117;-64
2022/04/08 11:16:57;;;;;;;9.40;4.05;;;;;;;9.45;100.00;99776.63;5189336;28;20095;-65
2022/04/08 11:19:30;;;;;;;6.20;2.83;;;;;;;9.54;100.00;99770.63;5189440;28;20554;-64
2022/04/08 11:22:10;;;;;;;6.30;3.47;;;;;;;9.69;100.00;99767.91;5205856;28;20080;-64
2022/04/08 11:24:40;;;;;;;2.92;2.70;;;;;;;9.46;100.00;99735.13;5188551;28;20017;-65
2022/04/08 11:27:11;;;;;;;3.78;3.42;;;;;;;9.60;100.00;99761.47;5205816;28;20483;-64
2022/04/08 11:29:41;;;;;;;4.47;3.63;;;;;;;9.76;100.00;99765.72;5188953;28;20029;-65
2022/04/08 11:32:12;;;;;;;2.50;2.40;;;;;;;9.90;100.00;99764.00;5189413;28;20034;-65
2022/04/08 11:34:42;;;;;;;10.88;4.90;;;;;;;9.95;100.00;99755.09;5189122;28;20064;-65
2022/04/08 11:37:13;;;;;;;10.40;3.90;;;;;;;9.94;100.00;99756.97;5189313;28;20504;-65
2022/04/08 11:39:45;;;;;;;3.08;2.85;;;;;;;9.93;100.00;99747.28;5172655;28;20054;-65
2022/04/08 11:42:20;;;;;;;10.43;2.80;;;;;;;9.99;100.00;99748.84;5189050;28;20037;-65
2022/04/08 11:44:50;;;;;;;2.85;2.65;;;;;;;10.05;100.00;99741.53;5188835;28;20037;-65
2022/04/08 11:47:31;;;;;;;7.80;3.47;;;;;;;10.03;100.00;99747.22;5188797;28;20071;-65
2022/04/08 11:50:03;;;;;;;12.68;3.83;;;;;;;9.98;100.00;99741.84;5188885;28;20032;-66